createdAt,value
2023-05-14T00:03:12.607Z,12.12
2023-05-14T00:08:15.460Z,12.10
2023-05-14T00:13:18.145Z,12.09
2023-05-14T00:18:20.839Z,12.00
2023-05-14T00:23:24.241Z,11.85
2023-05-14T00:28:27.002Z,11.69
2023-05-14T00:33:30.413Z,11.62
2023-05-14T00:38:33.172Z,11.53
2023-05-14T00:43:35.889Z,11.43
2023-05-14T00:48:38.773Z,11.43
2023-05-14T00:53:41.875Z,11.48
2023-05-14T00:58:44.666Z,11.48
2023-05-14T01:03:47.513Z,11.47
2023-05-14T01:08:53.153Z,11.44
2023-05-14T01:14:17.313Z,11.37
2023-05-14T01:19:44.017Z,11.29
2023-05-14T01:24:46.823Z,11.21
2023-05-14T01:30:12.589Z,11.07
2023-05-14T01:35:16.141Z,10.86
2023-05-14T01:40:19.508Z,10.67
2023-05-14T01:45:23.732Z,10.58
2023-05-14T01:50:26.507Z,11.79
2023-05-14T01:55:29.298Z,15.33
2023-05-14T02:00:32.070Z,16.19
2023-05-14T02:05:34.742Z,14.30
2023-05-14T02:10:37.464Z,13.25
2023-05-14T02:15:40.535Z,12.57
2023-05-14T02:20:43.239Z,12.04
2023-05-14T02:25:48.859Z,11.64
2023-05-14T02:30:51.520Z,11.35
2023-05-14T02:35:54.356Z,11.13
2023-05-14T02:40:57.075Z,10.96
2023-05-14T02:45:59.890Z,10.82
2023-05-14T02:51:03.009Z,10.69
2023-05-14T02:56:06.050Z,10.57
2023-05-14T03:01:08.916Z,10.43
2023-05-14T03:06:12.242Z,10.27
2023-05-14T03:11:14.990Z,11.39
2023-05-14T03:16:17.719Z,14.86
2023-05-14T03:21:20.584Z,15.22
2023-05-14T03:26:23.287Z,13.52
2023-05-14T03:31:26.694Z,12.59
2023-05-14T03:36:29.577Z,12.01
2023-05-14T03:41:33.078Z,11.58
2023-05-14T03:46:35.887Z,11.21
2023-05-14T03:51:38.627Z,10.89
2023-05-14T03:56:41.413Z,10.67
2023-05-14T04:01:44.386Z,10.54
2023-05-14T04:06:47.109Z,10.46
2023-05-14T04:11:49.825Z,10.43
2023-05-14T04:16:52.648Z,10.43
2023-05-14T04:21:55.413Z,11.74
2023-05-14T04:26:58.155Z,15.18
2023-05-14T04:32:00.996Z,15.95
2023-05-14T04:37:04.329Z,14.25
2023-05-14T04:42:07.862Z,13.26
2023-05-14T04:47:10.574Z,12.70
2023-05-14T04:52:13.455Z,12.39
2023-05-14T04:57:16.900Z,12.21
2023-05-14T05:02:19.651Z,12.11
2023-05-14T05:07:22.545Z,12.07
2023-05-14T05:12:26.161Z,12.09
2023-05-14T05:17:31.634Z,12.15
2023-05-14T05:22:34.426Z,12.25
2023-05-14T05:27:37.149Z,12.37
2023-05-14T05:32:42.866Z,12.54
2023-05-14T05:37:45.806Z,12.70
2023-05-14T05:42:48.574Z,12.90
2023-05-14T05:47:51.394Z,13.11
2023-05-14T05:52:54.308Z,13.33
2023-05-14T05:57:57.132Z,13.57
2023-05-14T06:03:00.820Z,13.85
2023-05-14T06:08:04.459Z,14.15
2023-05-14T06:13:07.196Z,14.49
2023-05-14T06:18:10.025Z,14.87
2023-05-14T06:23:12.751Z,15.28
2023-05-14T06:28:15.502Z,15.71
2023-05-14T06:33:20.038Z,16.20
2023-05-14T06:38:23.527Z,16.69
2023-05-14T06:43:26.629Z,17.19
2023-05-14T06:48:29.631Z,17.65
2023-05-14T06:53:32.636Z,18.11
2023-05-14T06:58:35.455Z,18.58
2023-05-14T07:03:38.263Z,19.02
2023-05-14T07:08:41.209Z,19.44
2023-05-14T07:13:43.971Z,19.85
2023-05-14T07:18:46.833Z,20.25
2023-05-14T07:23:50.325Z,20.63
2023-05-14T07:28:53.243Z,20.99
2023-05-14T07:33:55.940Z,21.32
2023-05-14T07:38:59.406Z,21.65
2023-05-14T07:44:02.304Z,21.95
2023-05-14T07:49:05.029Z,22.27
2023-05-14T07:54:07.877Z,22.57
2023-05-14T07:59:10.793Z,22.85
2023-05-14T08:04:15.693Z,23.11
2023-05-14T08:09:18.525Z,23.29
2023-05-14T08:14:21.623Z,23.48
2023-05-14T08:19:24.702Z,23.65
2023-05-14T08:24:27.615Z,23.81
2023-05-14T08:29:33.544Z,24.01
2023-05-14T08:34:36.700Z,24.15
2023-05-14T08:39:41.768Z,24.35
2023-05-14T08:44:50.298Z,24.68
2023-05-14T08:50:02.048Z,24.96
2023-05-14T08:55:07.953Z,25.22
2023-05-14T09:00:12.630Z,25.29
2023-05-14T09:05:17.401Z,25.43
2023-05-14T09:10:21.735Z,25.67
2023-05-14T09:15:29.093Z,25.87
2023-05-14T09:20:32.926Z,26.03
2023-05-14T09:25:35.646Z,26.13
2023-05-14T09:30:38.479Z,26.24
2023-05-14T09:35:43.512Z,26.38
2023-05-14T09:40:46.860Z,26.54
2023-05-14T09:45:50.421Z,26.81
2023-05-14T09:50:54.165Z,26.91
2023-05-14T09:55:56.896Z,27.20
2023-05-14T10:01:02.659Z,27.38
2023-05-14T10:06:06.690Z,27.48
2023-05-14T10:11:15.285Z,27.38
2023-05-14T10:16:29.168Z,27.42
2023-05-14T10:21:36.720Z,27.46
2023-05-14T10:26:42.163Z,27.61
2023-05-14T10:31:47.354Z,27.59
2023-05-14T10:36:51.849Z,27.36
2023-05-14T10:41:54.821Z,27.44
2023-05-14T10:46:57.645Z,27.82
2023-05-14T10:52:01.810Z,28.10
2023-05-14T10:57:04.716Z,28.12
2023-05-14T11:02:22.690Z,27.84
2023-05-14T11:07:29.773Z,27.97
2023-05-14T11:12:34.374Z,27.96
2023-05-14T11:17:39.050Z,27.74
2023-05-14T11:22:43.245Z,27.91
2023-05-14T11:27:47.655Z,27.82
2023-05-14T11:32:51.087Z,27.45
2023-05-14T11:37:53.955Z,27.15
2023-05-14T11:42:56.893Z,26.86
2023-05-14T11:47:59.665Z,26.39
2023-05-14T11:53:02.420Z,25.90
2023-05-14T11:58:05.618Z,25.53
2023-05-14T12:03:10.685Z,25.21
2023-05-14T12:08:22.848Z,25.02
2023-05-14T12:13:30.872Z,24.99
2023-05-14T12:18:33.842Z,24.91
2023-05-14T12:23:38.618Z,24.88
2023-05-14T12:28:43.738Z,24.81
2023-05-14T12:33:46.810Z,24.66
2023-05-14T12:38:50.853Z,24.56
2023-05-14T12:43:53.855Z,24.54
2023-05-14T12:48:56.987Z,24.57
2023-05-14T12:53:59.732Z,24.57
2023-05-14T12:59:02.399Z,24.56
2023-05-14T13:04:09.943Z,24.47
2023-05-14T13:09:12.738Z,24.61
2023-05-14T13:14:15.719Z,24.99
2023-05-14T13:19:18.442Z,25.20
2023-05-14T13:24:21.742Z,25.23
2023-05-14T13:29:24.460Z,25.51
2023-05-14T13:34:27.169Z,25.76
2023-05-14T13:39:30.112Z,25.72
2023-05-14T13:44:32.943Z,25.62
2023-05-14T13:49:35.687Z,25.69
2023-05-14T13:54:38.605Z,25.99
2023-05-14T13:59:42.071Z,26.28
2023-05-14T14:04:45.212Z,26.51
2023-05-14T14:09:47.991Z,26.70
2023-05-14T14:14:51.110Z,26.77
2023-05-14T14:19:54.057Z,26.82
2023-05-14T14:24:56.869Z,26.93
2023-05-14T14:29:59.789Z,27.18
2023-05-14T14:35:03.990Z,27.46
2023-05-14T14:40:12.106Z,27.59
2023-05-14T14:45:14.861Z,27.50
2023-05-14T14:50:17.634Z,27.28
2023-05-14T14:55:20.392Z,27.21
2023-05-14T15:00:23.339Z,27.21
2023-05-14T15:05:27.322Z,27.27
2023-05-14T15:10:31.895Z,27.28
2023-05-14T15:15:36.110Z,27.47
2023-05-14T15:20:38.976Z,27.65
2023-05-14T15:25:42.017Z,27.85
2023-05-14T15:30:47.913Z,27.84
2023-05-14T15:35:51.379Z,27.70
2023-05-14T15:40:54.093Z,27.48
2023-05-14T15:45:56.891Z,27.17
2023-05-14T15:51:00.149Z,26.98
2023-05-14T15:56:03.095Z,26.86
2023-05-14T16:01:05.920Z,26.75
2023-05-14T16:06:08.825Z,26.64
2023-05-14T16:11:11.616Z,26.49
2023-05-14T16:16:14.358Z,26.29
2023-05-14T16:21:17.106Z,26.15
2023-05-14T16:26:19.818Z,26.09
2023-05-14T16:31:22.753Z,25.98
2023-05-14T16:36:26.718Z,25.89
2023-05-14T16:41:29.495Z,25.72
2023-05-14T16:46:33.119Z,25.54
2023-05-14T16:51:37.937Z,25.24
2023-05-14T16:56:41.144Z,25.00
2023-05-14T17:01:44.419Z,24.82
2023-05-14T17:06:47.381Z,24.68
2023-05-14T17:11:50.121Z,24.59
2023-05-14T17:16:53.938Z,24.54
2023-05-14T17:21:56.616Z,24.55
2023-05-14T17:26:59.336Z,24.53
2023-05-14T17:32:03.621Z,24.46
2023-05-14T17:37:07.257Z,24.38
2023-05-14T17:42:10.061Z,24.25
2023-05-14T17:47:13.167Z,24.15
2023-05-14T17:52:15.834Z,24.02
2023-05-14T17:57:19.002Z,23.86
2023-05-14T18:02:21.794Z,23.68
2023-05-14T18:07:24.770Z,23.52
2023-05-14T18:12:29.334Z,23.40
2023-05-14T18:17:32.425Z,23.29
2023-05-14T18:22:35.232Z,23.16
2023-05-14T18:27:44.662Z,23.00
2023-05-14T18:32:47.823Z,22.80
2023-05-14T18:37:50.859Z,22.60
2023-05-14T18:42:53.600Z,22.39
2023-05-14T18:47:56.588Z,22.20
2023-05-14T18:52:59.357Z,22.03
2023-05-14T18:58:02.523Z,21.88
2023-05-14T19:03:05.647Z,21.72
2023-05-14T19:08:08.532Z,21.56
2023-05-14T19:13:11.827Z,21.39
2023-05-14T19:18:14.782Z,21.19
2023-05-14T19:23:18.209Z,20.97
2023-05-14T19:28:21.364Z,20.75
2023-05-14T19:33:26.480Z,20.59
2023-05-14T19:38:29.753Z,20.44
2023-05-14T19:43:32.586Z,20.26
2023-05-14T19:48:35.394Z,20.08
2023-05-14T19:53:38.101Z,19.90
2023-05-14T19:58:41.229Z,19.71
2023-05-14T20:03:44.040Z,19.52
2023-05-14T20:08:46.859Z,19.36
2023-05-14T20:13:49.568Z,19.22
2023-05-14T20:18:54.056Z,19.11
2023-05-14T20:23:57.112Z,18.95
2023-05-14T20:28:59.771Z,18.81
2023-05-14T20:34:02.697Z,18.71
2023-05-14T20:39:06.375Z,18.58
2023-05-14T20:44:09.161Z,18.40
2023-05-14T20:49:11.850Z,18.22
2023-05-14T20:54:14.559Z,18.06
2023-05-14T20:59:17.253Z,17.86
2023-05-14T21:04:20.021Z,17.71
2023-05-14T21:09:23.830Z,17.57
2023-05-14T21:14:26.645Z,17.43
2023-05-14T21:19:29.311Z,17.29
2023-05-14T21:24:32.148Z,17.15
2023-05-14T21:29:34.979Z,17.00
2023-05-14T21:34:38.213Z,16.86
2023-05-14T21:39:41.027Z,16.74
2023-05-14T21:44:43.727Z,16.64
2023-05-14T21:49:46.490Z,16.51
2023-05-14T21:54:49.192Z,16.34
2023-05-14T21:59:51.917Z,16.21
2023-05-14T22:04:54.598Z,16.16
2023-05-14T22:09:57.300Z,16.12
2023-05-14T22:15:00.290Z,16.09
2023-05-14T22:20:07.400Z,16.08
2023-05-14T22:25:10.466Z,16.05
2023-05-14T22:30:13.236Z,16.01
2023-05-14T22:35:16.190Z,15.99
2023-05-14T22:40:18.982Z,15.97
2023-05-14T22:45:21.657Z,15.92
2023-05-14T22:50:24.334Z,15.85
2023-05-14T22:55:27.422Z,15.80
2023-05-14T23:00:30.407Z,15.73
2023-05-14T23:05:33.099Z,15.64
2023-05-14T23:10:35.813Z,15.56
2023-05-14T23:15:38.947Z,15.53
2023-05-14T23:20:41.650Z,15.46
2023-05-14T23:25:44.473Z,15.37
2023-05-14T23:30:47.245Z,15.31
2023-05-14T23:35:50.069Z,15.21
2023-05-14T23:40:52.787Z,15.09
2023-05-14T23:45:55.811Z,14.98
2023-05-14T23:50:58.558Z,14.87
2023-05-14T23:56:01.310Z,14.75
